sensor_id;sensor_type;location;lat;lon;timestamp;P1;durP1;ratioP1;P2;durP2;ratioP2
68947;SDS011;55996;49.546;7.400;2022-09-09T00:09:28;3.13;;;1.60;;
68947;SDS011;55996;49.546;7.400;2022-09-09T00:12:00;3.57;;;1.50;;
68947;SDS011;55996;49.546;7.400;2022-09-09T00:17:34;2.33;;;1.30;;
68947;SDS011;55996;49.546;7.400;2022-09-09T00:22:39;4.73;;;1.80;;
68947;SDS011;55996;49.546;7.400;2022-09-09T00:25:12;4.27;;;1.77;;
68947;SDS011;55996;49.546;7.400;2022-09-09T00:27:47;4.80;;;1.70;;
68947;SDS011;55996;49.546;7.400;2022-09-09T00:32:39;3.27;;;1.43;;
68947;SDS011;55996;49.546;7.400;2022-09-09T00:35:14;2.40;;;1.50;;
68947;SDS011;55996;49.546;7.400;2022-09-09T00:37:47;5.07;;;1.43;;
68947;SDS011;55996;49.546;7.400;2022-09-09T00:40:23;3.33;;;1.63;;
68947;SDS011;55996;49.546;7.400;2022-09-09T00:42:53;2.97;;;1.40;;
68947;SDS011;55996;49.546;7.400;2022-09-09T00:48:04;5.10;;;1.50;;
68947;SDS011;55996;49.546;7.400;2022-09-09T00:56:02;1.57;;;1.40;;
68947;SDS011;55996;49.546;7.400;2022-09-09T00:58:34;6.87;;;1.83;;
68947;SDS011;55996;49.546;7.400;2022-09-09T01:01:09;3.23;;;1.90;;
68947;SDS011;55996;49.546;7.400;2022-09-09T01:03:45;4.20;;;1.50;;
68947;SDS011;55996;49.546;7.400;2022-09-09T01:06:37;3.77;;;1.50;;
68947;SDS011;55996;49.546;7.400;2022-09-09T01:14:29;2.63;;;1.43;;
68947;SDS011;55996;49.546;7.400;2022-09-09T01:17:11;2.77;;;1.10;;
68947;SDS011;55996;49.546;7.400;2022-09-09T01:19:45;1.30;;;1.20;;
68947;SDS011;55996;49.546;7.400;2022-09-09T01:27:37;1.80;;;1.47;;
68947;SDS011;55996;49.546;7.400;2022-09-09T01:30:08;4.63;;;1.60;;
68947;SDS011;55996;49.546;7.400;2022-09-09T01:32:37;4.63;;;1.50;;
68947;SDS011;55996;49.546;7.400;2022-09-09T01:35:07;1.70;;;1.30;;
68947;SDS011;55996;49.546;7.400;2022-09-09T01:37:55;3.40;;;1.50;;
68947;SDS011;55996;49.546;7.400;2022-09-09T01:40:20;3.73;;;1.50;;
68947;SDS011;55996;49.546;7.400;2022-09-09T01:42:46;3.27;;;1.40;;
68947;SDS011;55996;49.546;7.400;2022-09-09T01:45:12;4.97;;;1.40;;
68947;SDS011;55996;49.546;7.400;2022-09-09T01:47:37;3.90;;;1.23;;
68947;SDS011;55996;49.546;7.400;2022-09-09T01:50:03;1.80;;;1.27;;
68947;SDS011;55996;49.546;7.400;2022-09-09T01:52:29;3.63;;;1.63;;
68947;SDS011;55996;49.546;7.400;2022-09-09T01:54:57;3.53;;;1.40;;
68947;SDS011;55996;49.546;7.400;2022-09-09T01:57:25;4.23;;;1.50;;
68947;SDS011;55996;49.546;7.400;2022-09-09T02:05:17;3.43;;;1.30;;
68947;SDS011;55996;49.546;7.400;2022-09-09T02:08:15;4.70;;;1.20;;
68947;SDS011;55996;49.546;7.400;2022-09-09T02:13:23;5.03;;;1.53;;
68947;SDS011;55996;49.546;7.400;2022-09-09T02:19:02;5.67;;;1.60;;
68947;SDS011;55996;49.546;7.400;2022-09-09T02:21:50;5.93;;;1.40;;
68947;SDS011;55996;49.546;7.400;2022-09-09T02:24:18;3.70;;;1.40;;
68947;SDS011;55996;49.546;7.400;2022-09-09T02:26:44;6.63;;;1.60;;
68947;SDS011;55996;49.546;7.400;2022-09-09T02:29:15;3.10;;;1.30;;
68947;SDS011;55996;49.546;7.400;2022-09-09T02:31:49;3.37;;;1.40;;
68947;SDS011;55996;49.546;7.400;2022-09-09T02:34:16;4.33;;;1.67;;
68947;SDS011;55996;49.546;7.400;2022-09-09T02:36:45;5.67;;;1.70;;
68947;SDS011;55996;49.546;7.400;2022-09-09T02:39:12;5.53;;;1.70;;
68947;SDS011;55996;49.546;7.400;2022-09-09T02:41:39;8.20;;;1.80;;
68947;SDS011;55996;49.546;7.400;2022-09-09T02:44:13;3.63;;;1.60;;
68947;SDS011;55996;49.546;7.400;2022-09-09T02:49:18;5.80;;;1.77;;
68947;SDS011;55996;49.546;7.400;2022-09-09T02:51:56;4.27;;;1.43;;
68947;SDS011;55996;49.546;7.400;2022-09-09T02:56:58;4.07;;;1.67;;
68947;SDS011;55996;49.546;7.400;2022-09-09T02:59:27;4.30;;;1.83;;
68947;SDS011;55996;49.546;7.400;2022-09-09T03:01:52;3.80;;;1.60;;
68947;SDS011;55996;49.546;7.400;2022-09-09T03:04:18;2.60;;;1.50;;
68947;SDS011;55996;49.546;7.400;2022-09-09T03:06:43;2.07;;;1.20;;
68947;SDS011;55996;49.546;7.400;2022-09-09T03:09:09;2.93;;;1.30;;
68947;SDS011;55996;49.546;7.400;2022-09-09T03:11:35;6.40;;;1.60;;
68947;SDS011;55996;49.546;7.400;2022-09-09T03:14:01;6.43;;;1.90;;
68947;SDS011;55996;49.546;7.400;2022-09-09T03:16:27;4.87;;;1.80;;
68947;SDS011;55996;49.546;7.400;2022-09-09T03:18:52;3.60;;;1.20;;
68947;SDS011;55996;49.546;7.400;2022-09-09T03:21:18;3.23;;;1.37;;
68947;SDS011;55996;49.546;7.400;2022-09-09T03:23:43;5.10;;;1.47;;
68947;SDS011;55996;49.546;7.400;2022-09-09T03:26:10;3.13;;;1.40;;
68947;SDS011;55996;49.546;7.400;2022-09-09T03:28:35;3.47;;;1.33;;
68947;SDS011;55996;49.546;7.400;2022-09-09T03:31:01;3.90;;;1.33;;
68947;SDS011;55996;49.546;7.400;2022-09-09T03:33:28;3.40;;;1.30;;
68947;SDS011;55996;49.546;7.400;2022-09-09T03:35:54;5.63;;;1.70;;
68947;SDS011;55996;49.546;7.400;2022-09-09T03:38:21;4.00;;;1.30;;
68947;SDS011;55996;49.546;7.400;2022-09-09T03:40:51;3.80;;;1.50;;
68947;SDS011;55996;49.546;7.400;2022-09-09T03:43:20;4.80;;;1.20;;
68947;SDS011;55996;49.546;7.400;2022-09-09T03:45:46;4.93;;;1.60;;
68947;SDS011;55996;49.546;7.400;2022-09-09T03:48:12;4.93;;;1.53;;
68947;SDS011;55996;49.546;7.400;2022-09-09T03:50:39;8.30;;;1.50;;
68947;SDS011;55996;49.546;7.400;2022-09-09T03:53:04;4.00;;;1.20;;
68947;SDS011;55996;49.546;7.400;2022-09-09T03:55:31;3.33;;;1.30;;
68947;SDS011;55996;49.546;7.400;2022-09-09T03:57:57;2.77;;;1.17;;
68947;SDS011;55996;49.546;7.400;2022-09-09T04:00:23;4.83;;;1.50;;
68947;SDS011;55996;49.546;7.400;2022-09-09T04:02:48;4.37;;;1.33;;
68947;SDS011;55996;49.546;7.400;2022-09-09T04:05:14;2.13;;;1.10;;
68947;SDS011;55996;49.546;7.400;2022-09-09T04:07:40;2.00;;;1.20;;
68947;SDS011;55996;49.546;7.400;2022-09-09T04:10:06;4.47;;;1.43;;
68947;SDS011;55996;49.546;7.400;2022-09-09T04:12:33;3.80;;;1.50;;
68947;SDS011;55996;49.546;7.400;2022-09-09T04:14:59;10.07;;;1.67;;
68947;SDS011;55996;49.546;7.400;2022-09-09T04:17:27;5.43;;;1.60;;
68947;SDS011;55996;49.546;7.400;2022-09-09T04:19:52;5.20;;;1.87;;
68947;SDS011;55996;49.546;7.400;2022-09-09T04:22:17;4.67;;;1.50;;
68947;SDS011;55996;49.546;7.400;2022-09-09T04:24:43;4.07;;;1.50;;
68947;SDS011;55996;49.546;7.400;2022-09-09T04:27:08;6.53;;;1.60;;
68947;SDS011;55996;49.546;7.400;2022-09-09T04:29:34;4.30;;;1.53;;
68947;SDS011;55996;49.546;7.400;2022-09-09T04:31:59;4.50;;;1.37;;
68947;SDS011;55996;49.546;7.400;2022-09-09T04:34:25;3.10;;;1.50;;
68947;SDS011;55996;49.546;7.400;2022-09-09T04:36:51;6.53;;;1.60;;
68947;SDS011;55996;49.546;7.400;2022-09-09T04:39:20;3.23;;;1.20;;
68947;SDS011;55996;49.546;7.400;2022-09-09T04:41:45;4.23;;;1.40;;
68947;SDS011;55996;49.546;7.400;2022-09-09T04:44:11;4.43;;;1.73;;
68947;SDS011;55996;49.546;7.400;2022-09-09T04:46:37;8.20;;;1.47;;
68947;SDS011;55996;49.546;7.400;2022-09-09T04:49:02;4.27;;;1.30;;
68947;SDS011;55996;49.546;7.400;2022-09-09T04:51:28;4.87;;;1.67;;
68947;SDS011;55996;49.546;7.400;2022-09-09T04:53:54;3.33;;;1.60;;
68947;SDS011;55996;49.546;7.400;2022-09-09T04:56:20;3.70;;;1.63;;
68947;SDS011;55996;49.546;7.400;2022-09-09T04:58:45;6.63;;;1.63;;
68947;SDS011;55996;49.546;7.400;2022-09-09T05:03:36;7.20;;;1.60;;
68947;SDS011;55996;49.546;7.400;2022-09-09T05:06:12;5.33;;;1.73;;
68947;SDS011;55996;49.546;7.400;2022-09-09T05:08:40;3.40;;;1.47;;
68947;SDS011;55996;49.546;7.400;2022-09-09T05:11:16;5.10;;;1.70;;
68947;SDS011;55996;49.546;7.400;2022-09-09T05:13:49;7.10;;;1.97;;
68947;SDS011;55996;49.546;7.400;2022-09-09T05:16:15;7.33;;;1.60;;
68947;SDS011;55996;49.546;7.400;2022-09-09T05:18:41;4.47;;;1.40;;
68947;SDS011;55996;49.546;7.400;2022-09-09T05:21:11;5.77;;;2.10;;
68947;SDS011;55996;49.546;7.400;2022-09-09T05:23:38;5.70;;;1.70;;
68947;SDS011;55996;49.546;7.400;2022-09-09T05:26:04;4.77;;;1.60;;
68947;SDS011;55996;49.546;7.400;2022-09-09T05:28:30;3.37;;;1.60;;
68947;SDS011;55996;49.546;7.400;2022-09-09T05:30:59;6.20;;;1.73;;
68947;SDS011;55996;49.546;7.400;2022-09-09T05:33:29;5.80;;;1.47;;
68947;SDS011;55996;49.546;7.400;2022-09-09T05:35:58;5.03;;;1.80;;
68947;SDS011;55996;49.546;7.400;2022-09-09T05:38:29;5.53;;;2.07;;
68947;SDS011;55996;49.546;7.400;2022-09-09T05:40:57;8.17;;;1.80;;
68947;SDS011;55996;49.546;7.400;2022-09-09T05:43:23;7.33;;;2.10;;
68947;SDS011;55996;49.546;7.400;2022-09-09T05:45:58;4.47;;;1.83;;
68947;SDS011;55996;49.546;7.400;2022-09-09T05:48:34;6.57;;;2.00;;
68947;SDS011;55996;49.546;7.400;2022-09-09T05:51:02;7.70;;;1.70;;
68947;SDS011;55996;49.546;7.400;2022-09-09T05:53:29;5.03;;;1.97;;
68947;SDS011;55996;49.546;7.400;2022-09-09T05:56:03;6.20;;;1.93;;
68947;SDS011;55996;49.546;7.400;2022-09-09T05:58:35;6.07;;;1.60;;
68947;SDS011;55996;49.546;7.400;2022-09-09T06:01:07;5.90;;;2.23;;
68947;SDS011;55996;49.546;7.400;2022-09-09T06:03:35;7.67;;;2.20;;
68947;SDS011;55996;49.546;7.400;2022-09-09T06:06:03;7.57;;;2.10;;
68947;SDS011;55996;49.546;7.400;2022-09-09T06:08:31;6.93;;;1.83;;
68947;SDS011;55996;49.546;7.400;2022-09-09T06:11:01;5.27;;;2.07;;
68947;SDS011;55996;49.546;7.400;2022-09-09T06:13:31;6.53;;;2.27;;
68947;SDS011;55996;49.546;7.400;2022-09-09T06:15:57;4.17;;;2.10;;
68947;SDS011;55996;49.546;7.400;2022-09-09T06:18:23;4.03;;;1.97;;
68947;SDS011;55996;49.546;7.400;2022-09-09T06:20:54;3.07;;;2.07;;
68947;SDS011;55996;49.546;7.400;2022-09-09T06:23:19;5.63;;;2.40;;
68947;SDS011;55996;49.546;7.400;2022-09-09T06:25:45;5.90;;;2.50;;
68947;SDS011;55996;49.546;7.400;2022-09-09T06:28:11;4.37;;;2.40;;
68947;SDS011;55996;49.546;7.400;2022-09-09T06:30:36;5.40;;;2.20;;
68947;SDS011;55996;49.546;7.400;2022-09-09T06:33:02;6.63;;;2.60;;
68947;SDS011;55996;49.546;7.400;2022-09-09T06:35:27;6.17;;;2.20;;
68947;SDS011;55996;49.546;7.400;2022-09-09T06:37:53;6.00;;;2.40;;
68947;SDS011;55996;49.546;7.400;2022-09-09T06:40:19;5.43;;;2.43;;
68947;SDS011;55996;49.546;7.400;2022-09-09T06:42:44;5.00;;;2.03;;
68947;SDS011;55996;49.546;7.400;2022-09-09T06:45:09;6.30;;;2.57;;
68947;SDS011;55996;49.546;7.400;2022-09-09T06:47:35;5.90;;;1.80;;
68947;SDS011;55996;49.546;7.400;2022-09-09T06:50:01;5.67;;;2.00;;
68947;SDS011;55996;49.546;7.400;2022-09-09T06:52:26;7.17;;;2.63;;
68947;SDS011;55996;49.546;7.400;2022-09-09T06:54:52;7.07;;;2.37;;
68947;SDS011;55996;49.546;7.400;2022-09-09T06:57:18;5.63;;;2.07;;
68947;SDS011;55996;49.546;7.400;2022-09-09T06:59:44;9.63;;;2.30;;
68947;SDS011;55996;49.546;7.400;2022-09-09T07:02:09;4.77;;;2.13;;
68947;SDS011;55996;49.546;7.400;2022-09-09T07:04:35;7.67;;;2.37;;
68947;SDS011;55996;49.546;7.400;2022-09-09T07:07:02;5.73;;;2.00;;
68947;SDS011;55996;49.546;7.400;2022-09-09T07:09:27;7.03;;;2.00;;
68947;SDS011;55996;49.546;7.400;2022-09-09T07:11:54;8.67;;;2.20;;
68947;SDS011;55996;49.546;7.400;2022-09-09T07:14:20;7.33;;;2.30;;
68947;SDS011;55996;49.546;7.400;2022-09-09T07:16:46;8.27;;;2.60;;
68947;SDS011;55996;49.546;7.400;2022-09-09T07:19:11;7.20;;;2.20;;
68947;SDS011;55996;49.546;7.400;2022-09-09T07:21:39;8.87;;;2.70;;
68947;SDS011;55996;49.546;7.400;2022-09-09T07:24:07;4.70;;;2.00;;
68947;SDS011;55996;49.546;7.400;2022-09-09T07:26:35;5.83;;;2.33;;
68947;SDS011;55996;49.546;7.400;2022-09-09T07:29:01;8.30;;;2.33;;
68947;SDS011;55996;49.546;7.400;2022-09-09T07:31:28;6.47;;;2.37;;
68947;SDS011;55996;49.546;7.400;2022-09-09T07:33:55;4.23;;;1.90;;
68947;SDS011;55996;49.546;7.400;2022-09-09T07:36:25;6.57;;;2.47;;
68947;SDS011;55996;49.546;7.400;2022-09-09T07:38:54;6.80;;;2.20;;
68947;SDS011;55996;49.546;7.400;2022-09-09T07:41:25;8.63;;;2.53;;
68947;SDS011;55996;49.546;7.400;2022-09-09T07:43:52;4.90;;;2.37;;
68947;SDS011;55996;49.546;7.400;2022-09-09T07:46:22;7.07;;;2.40;;
68947;SDS011;55996;49.546;7.400;2022-09-09T07:48:49;7.17;;;2.00;;
68947;SDS011;55996;49.546;7.400;2022-09-09T07:51:17;7.63;;;2.30;;
68947;SDS011;55996;49.546;7.400;2022-09-09T07:53:46;7.37;;;2.10;;
68947;SDS011;55996;49.546;7.400;2022-09-09T07:56:14;8.90;;;2.00;;
68947;SDS011;55996;49.546;7.400;2022-09-09T07:58:47;5.07;;;2.33;;
68947;SDS011;55996;49.546;7.400;2022-09-09T08:01:14;6.20;;;2.40;;
68947;SDS011;55996;49.546;7.400;2022-09-09T08:03:43;7.70;;;2.03;;
68947;SDS011;55996;49.546;7.400;2022-09-09T08:06:13;7.90;;;2.40;;
68947;SDS011;55996;49.546;7.400;2022-09-09T08:08:39;6.20;;;2.10;;
68947;SDS011;55996;49.546;7.400;2022-09-09T08:11:13;7.07;;;2.20;;
68947;SDS011;55996;49.546;7.400;2022-09-09T08:13:40;7.13;;;2.20;;
68947;SDS011;55996;49.546;7.400;2022-09-09T08:16:07;6.50;;;1.90;;
68947;SDS011;55996;49.546;7.400;2022-09-09T08:18:35;4.67;;;1.93;;
68947;SDS011;55996;49.546;7.400;2022-09-09T08:21:20;9.33;;;2.17;;
68947;SDS011;55996;49.546;7.400;2022-09-09T08:23:49;3.63;;;1.70;;
68947;SDS011;55996;49.546;7.400;2022-09-09T08:26:18;7.83;;;2.30;;
68947;SDS011;55996;49.546;7.400;2022-09-09T08:28:47;6.03;;;1.80;;
68947;SDS011;55996;49.546;7.400;2022-09-09T08:31:18;4.10;;;1.90;;
68947;SDS011;55996;49.546;7.400;2022-09-09T08:33:46;5.13;;;1.70;;
68947;SDS011;55996;49.546;7.400;2022-09-09T08:36:13;5.13;;;1.87;;
68947;SDS011;55996;49.546;7.400;2022-09-09T08:38:43;6.73;;;2.00;;
68947;SDS011;55996;49.546;7.400;2022-09-09T08:43:40;6.67;;;1.83;;
68947;SDS011;55996;49.546;7.400;2022-09-09T08:46:12;6.93;;;2.10;;
68947;SDS011;55996;49.546;7.400;2022-09-09T08:49:01;4.23;;;1.73;;
68947;SDS011;55996;49.546;7.400;2022-09-09T08:51:44;5.87;;;1.90;;
68947;SDS011;55996;49.546;7.400;2022-09-09T08:54:10;6.17;;;1.97;;
68947;SDS011;55996;49.546;7.400;2022-09-09T08:56:35;4.00;;;1.77;;
68947;SDS011;55996;49.546;7.400;2022-09-09T08:59:01;7.57;;;1.90;;
68947;SDS011;55996;49.546;7.400;2022-09-09T09:09:58;5.10;;;1.73;;
68947;SDS011;55996;49.546;7.400;2022-09-09T09:12:32;7.27;;;2.20;;
68947;SDS011;55996;49.546;7.400;2022-09-09T09:15:05;9.60;;;2.27;;
68947;SDS011;55996;49.546;7.400;2022-09-09T09:17:42;5.97;;;1.80;;
68947;SDS011;55996;49.546;7.400;2022-09-09T09:20:11;13.93;;;2.50;;
68947;SDS011;55996;49.546;7.400;2022-09-09T09:22:49;6.13;;;1.90;;
68947;SDS011;55996;49.546;7.400;2022-09-09T09:36:06;9.70;;;2.13;;
68947;SDS011;55996;49.546;7.400;2022-09-09T09:38:33;6.00;;;1.87;;
68947;SDS011;55996;49.546;7.400;2022-09-09T09:41:00;7.97;;;1.83;;
68947;SDS011;55996;49.546;7.400;2022-09-09T09:43:27;6.50;;;1.80;;
68947;SDS011;55996;49.546;7.400;2022-09-09T09:45:57;8.43;;;2.23;;
68947;SDS011;55996;49.546;7.400;2022-09-09T09:48:23;5.93;;;1.97;;
68947;SDS011;55996;49.546;7.400;2022-09-09T09:53:27;6.00;;;1.83;;
68947;SDS011;55996;49.546;7.400;2022-09-09T09:56:00;5.07;;;1.50;;
68947;SDS011;55996;49.546;7.400;2022-09-09T09:58:32;5.32;;;1.70;;
68947;SDS011;55996;49.546;7.400;2022-09-09T10:01:02;3.45;;;1.55;;
68947;SDS011;55996;49.546;7.400;2022-09-09T10:03:29;7.85;;;2.05;;
68947;SDS011;55996;49.546;7.400;2022-09-09T10:05:56;3.88;;;1.50;;
68947;SDS011;55996;49.546;7.400;2022-09-09T10:08:26;4.95;;;1.70;;
68947;SDS011;55996;49.546;7.400;2022-09-09T10:11:04;6.85;;;1.95;;
68947;SDS011;55996;49.546;7.400;2022-09-09T10:19:21;4.63;;;1.58;;
68947;SDS011;55996;49.546;7.400;2022-09-09T10:30:11;3.92;;;1.80;;
68947;SDS011;55996;49.546;7.400;2022-09-09T10:32:48;5.38;;;1.85;;
68947;SDS011;55996;49.546;7.400;2022-09-09T10:35:34;6.35;;;3.22;;
68947;SDS011;55996;49.546;7.400;2022-09-09T10:56:42;4.67;;;2.57;;
68947;SDS011;55996;49.546;7.400;2022-09-09T10:59:16;5.57;;;2.77;;
68947;SDS011;55996;49.546;7.400;2022-09-09T11:01:48;8.83;;;2.07;;
68947;SDS011;55996;49.546;7.400;2022-09-09T11:04:44;4.77;;;2.33;;
68947;SDS011;55996;49.546;7.400;2022-09-09T11:07:14;5.03;;;2.00;;
68947;SDS011;55996;49.546;7.400;2022-09-09T11:09:52;5.67;;;1.80;;
68947;SDS011;55996;49.546;7.400;2022-09-09T11:12:20;7.13;;;1.67;;
68947;SDS011;55996;49.546;7.400;2022-09-09T11:15:01;3.10;;;1.63;;
68947;SDS011;55996;49.546;7.400;2022-09-09T11:17:42;4.87;;;1.90;;
68947;SDS011;55996;49.546;7.400;2022-09-09T11:20:12;5.20;;;1.90;;
68947;SDS011;55996;49.546;7.400;2022-09-09T11:43:27;4.87;;;1.43;;
68947;SDS011;55996;49.546;7.400;2022-09-09T11:45:57;3.10;;;1.60;;
68947;SDS011;55996;49.546;7.400;2022-09-09T11:48:35;3.90;;;1.50;;
68947;SDS011;55996;49.546;7.400;2022-09-09T11:51:09;2.30;;;1.10;;
68947;SDS011;55996;49.546;7.400;2022-09-09T11:56:30;7.07;;;1.40;;
68947;SDS011;55996;49.546;7.400;2022-09-09T11:59:06;1.97;;;1.40;;
68947;SDS011;55996;49.546;7.400;2022-09-09T12:01:55;3.37;;;1.40;;
68947;SDS011;55996;49.546;7.400;2022-09-09T12:06:56;3.40;;;1.40;;
68947;SDS011;55996;49.546;7.400;2022-09-09T12:09:40;5.40;;;1.30;;
68947;SDS011;55996;49.546;7.400;2022-09-09T12:17:43;5.83;;;1.70;;
68947;SDS011;55996;49.546;7.400;2022-09-09T12:22:42;5.30;;;1.87;;
68947;SDS011;55996;49.546;7.400;2022-09-09T12:28:18;3.60;;;2.00;;
68947;SDS011;55996;49.546;7.400;2022-09-09T12:31:08;4.90;;;1.60;;
68947;SDS011;55996;49.546;7.400;2022-09-09T12:33:42;2.67;;;1.53;;
68947;SDS011;55996;49.546;7.400;2022-09-09T12:36:15;4.17;;;2.03;;
68947;SDS011;55996;49.546;7.400;2022-09-09T12:38:44;3.10;;;1.60;;
68947;SDS011;55996;49.546;7.400;2022-09-09T12:41:21;4.63;;;1.60;;
68947;SDS011;55996;49.546;7.400;2022-09-09T12:44:02;5.70;;;1.80;;
68947;SDS011;55996;49.546;7.400;2022-09-09T12:46:35;5.00;;;1.53;;
68947;SDS011;55996;49.546;7.400;2022-09-09T12:49:17;4.43;;;1.60;;
68947;SDS011;55996;49.546;7.400;2022-09-09T12:52:04;4.33;;;1.90;;
68947;SDS011;55996;49.546;7.400;2022-09-09T12:54:35;3.07;;;1.30;;
68947;SDS011;55996;49.546;7.400;2022-09-09T12:57:02;3.03;;;1.57;;
68947;SDS011;55996;49.546;7.400;2022-09-09T12:59:36;3.37;;;1.37;;
68947;SDS011;55996;49.546;7.400;2022-09-09T13:05:06;6.80;;;2.00;;
68947;SDS011;55996;49.546;7.400;2022-09-09T13:07:41;4.27;;;2.00;;
68947;SDS011;55996;49.546;7.400;2022-09-09T13:10:10;3.50;;;1.50;;
68947;SDS011;55996;49.546;7.400;2022-09-09T13:12:37;4.70;;;1.77;;
68947;SDS011;55996;49.546;7.400;2022-09-09T13:15:03;5.93;;;1.63;;
68947;SDS011;55996;49.546;7.400;2022-09-09T13:17:29;8.53;;;1.80;;
68947;SDS011;55996;49.546;7.400;2022-09-09T13:19:54;4.10;;;1.70;;
68947;SDS011;55996;49.546;7.400;2022-09-09T13:22:39;6.67;;;1.80;;
68947;SDS011;55996;49.546;7.400;2022-09-09T13:25:13;3.17;;;1.43;;
68947;SDS011;55996;49.546;7.400;2022-09-09T13:27:57;3.00;;;1.30;;
68947;SDS011;55996;49.546;7.400;2022-09-09T13:38:32;4.70;;;1.70;;
68947;SDS011;55996;49.546;7.400;2022-09-09T13:41:04;5.20;;;1.80;;
68947;SDS011;55996;49.546;7.400;2022-09-09T13:43:34;3.97;;;1.60;;
68947;SDS011;55996;49.546;7.400;2022-09-09T13:46:03;5.53;;;1.83;;
68947;SDS011;55996;49.546;7.400;2022-09-09T13:48:31;3.20;;;1.50;;
68947;SDS011;55996;49.546;7.400;2022-09-09T13:51:03;4.57;;;1.83;;
68947;SDS011;55996;49.546;7.400;2022-09-09T13:53:30;3.00;;;1.50;;
68947;SDS011;55996;49.546;7.400;2022-09-09T13:55:56;2.23;;;1.13;;
68947;SDS011;55996;49.546;7.400;2022-09-09T13:58:23;1.93;;;1.10;;
68947;SDS011;55996;49.546;7.400;2022-09-09T14:00:50;4.13;;;1.33;;
68947;SDS011;55996;49.546;7.400;2022-09-09T14:03:19;4.33;;;1.33;;
68947;SDS011;55996;49.546;7.400;2022-09-09T14:05:45;3.47;;;1.33;;
68947;SDS011;55996;49.546;7.400;2022-09-09T14:08:15;3.33;;;1.43;;
68947;SDS011;55996;49.546;7.400;2022-09-09T14:10:46;3.00;;;1.30;;
68947;SDS011;55996;49.546;7.400;2022-09-09T14:13:12;3.43;;;1.20;;
68947;SDS011;55996;49.546;7.400;2022-09-09T14:15:37;1.60;;;1.07;;
68947;SDS011;55996;49.546;7.400;2022-09-09T14:18:04;1.40;;;1.00;;
68947;SDS011;55996;49.546;7.400;2022-09-09T14:20:29;2.60;;;1.13;;
68947;SDS011;55996;49.546;7.400;2022-09-09T14:22:54;1.50;;;0.90;;
68947;SDS011;55996;49.546;7.400;2022-09-09T14:25:21;1.60;;;1.10;;
68947;SDS011;55996;49.546;7.400;2022-09-09T14:27:46;2.70;;;0.80;;
68947;SDS011;55996;49.546;7.400;2022-09-09T14:30:12;1.70;;;0.90;;
68947;SDS011;55996;49.546;7.400;2022-09-09T14:32:37;3.47;;;1.17;;
68947;SDS011;55996;49.546;7.400;2022-09-09T14:35:03;1.67;;;1.07;;
68947;SDS011;55996;49.546;7.400;2022-09-09T14:37:29;3.23;;;1.40;;
68947;SDS011;55996;49.546;7.400;2022-09-09T14:39:56;2.10;;;1.03;;
68947;SDS011;55996;49.546;7.400;2022-09-09T14:42:21;2.73;;;1.10;;
68947;SDS011;55996;49.546;7.400;2022-09-09T14:44:47;4.07;;;1.20;;
68947;SDS011;55996;49.546;7.400;2022-09-09T14:47:13;4.20;;;1.30;;
68947;SDS011;55996;49.546;7.400;2022-09-09T14:49:38;3.63;;;1.27;;
68947;SDS011;55996;49.546;7.400;2022-09-09T14:52:04;2.80;;;1.20;;
68947;SDS011;55996;49.546;7.400;2022-09-09T14:54:30;4.63;;;1.30;;
68947;SDS011;55996;49.546;7.400;2022-09-09T14:56:57;3.77;;;1.00;;
68947;SDS011;55996;49.546;7.400;2022-09-09T14:59:23;1.70;;;1.20;;
68947;SDS011;55996;49.546;7.400;2022-09-09T15:01:48;2.47;;;1.30;;
68947;SDS011;55996;49.546;7.400;2022-09-09T15:04:14;3.57;;;1.30;;
68947;SDS011;55996;49.546;7.400;2022-09-09T15:06:40;2.73;;;1.27;;
68947;SDS011;55996;49.546;7.400;2022-09-09T15:09:07;2.83;;;1.20;;
68947;SDS011;55996;49.546;7.400;2022-09-09T15:11:34;5.07;;;1.40;;
68947;SDS011;55996;49.546;7.400;2022-09-09T15:14:03;2.83;;;1.27;;
68947;SDS011;55996;49.546;7.400;2022-09-09T15:16:29;3.00;;;1.37;;
68947;SDS011;55996;49.546;7.400;2022-09-09T15:18:57;4.33;;;1.20;;
68947;SDS011;55996;49.546;7.400;2022-09-09T15:21:24;3.20;;;1.40;;
68947;SDS011;55996;49.546;7.400;2022-09-09T15:23:51;2.47;;;1.20;;
68947;SDS011;55996;49.546;7.400;2022-09-09T15:26:17;3.30;;;1.30;;
68947;SDS011;55996;49.546;7.400;2022-09-09T15:28:44;2.57;;;1.30;;
68947;SDS011;55996;49.546;7.400;2022-09-09T15:34:00;3.27;;;1.00;;
68947;SDS011;55996;49.546;7.400;2022-09-09T15:38:57;4.50;;;0.80;;
68947;SDS011;55996;49.546;7.400;2022-09-09T15:41:23;2.60;;;0.80;;
68947;SDS011;55996;49.546;7.400;2022-09-09T15:43:50;3.37;;;0.97;;
68947;SDS011;55996;49.546;7.400;2022-09-09T15:48:42;1.47;;;0.57;;
68947;SDS011;55996;49.546;7.400;2022-09-09T15:51:11;4.67;;;1.23;;
68947;SDS011;55996;49.546;7.400;2022-09-09T15:53:38;3.03;;;0.90;;
68947;SDS011;55996;49.546;7.400;2022-09-09T15:56:04;3.87;;;1.07;;
68947;SDS011;55996;49.546;7.400;2022-09-09T15:58:31;3.77;;;1.30;;
68947;SDS011;55996;49.546;7.400;2022-09-09T16:01:02;4.50;;;1.27;;
68947;SDS011;55996;49.546;7.400;2022-09-09T16:03:29;2.57;;;1.00;;
68947;SDS011;55996;49.546;7.400;2022-09-09T16:05:58;3.47;;;0.93;;
68947;SDS011;55996;49.546;7.400;2022-09-09T16:08:24;4.43;;;1.10;;
68947;SDS011;55996;49.546;7.400;2022-09-09T16:10:56;2.93;;;1.20;;
68947;SDS011;55996;49.546;7.400;2022-09-09T16:13:32;2.27;;;1.10;;
68947;SDS011;55996;49.546;7.400;2022-09-09T16:15:58;3.43;;;1.13;;
68947;SDS011;55996;49.546;7.400;2022-09-09T16:18:24;6.07;;;1.30;;
68947;SDS011;55996;49.546;7.400;2022-09-09T16:20:53;3.43;;;1.37;;
68947;SDS011;55996;49.546;7.400;2022-09-09T16:23:19;1.20;;;0.93;;
68947;SDS011;55996;49.546;7.400;2022-09-09T16:25:52;4.20;;;1.17;;
68947;SDS011;55996;49.546;7.400;2022-09-09T16:28:21;4.10;;;1.47;;
68947;SDS011;55996;49.546;7.400;2022-09-09T16:30:47;3.47;;;1.27;;
68947;SDS011;55996;49.546;7.400;2022-09-09T16:33:13;3.90;;;1.20;;
68947;SDS011;55996;49.546;7.400;2022-09-09T16:35:42;4.50;;;1.40;;
68947;SDS011;55996;49.546;7.400;2022-09-09T16:38:09;1.20;;;0.77;;
68947;SDS011;55996;49.546;7.400;2022-09-09T16:40:35;1.13;;;0.90;;
68947;SDS011;55996;49.546;7.400;2022-09-09T16:43:01;2.63;;;1.10;;
68947;SDS011;55996;49.546;7.400;2022-09-09T16:45:27;3.10;;;1.13;;
68947;SDS011;55996;49.546;7.400;2022-09-09T16:47:53;2.43;;;1.20;;
68947;SDS011;55996;49.546;7.400;2022-09-09T16:50:19;1.63;;;1.23;;
68947;SDS011;55996;49.546;7.400;2022-09-09T16:52:44;4.97;;;1.20;;
68947;SDS011;55996;49.546;7.400;2022-09-09T16:55:10;2.97;;;1.30;;
68947;SDS011;55996;49.546;7.400;2022-09-09T16:57:35;1.57;;;0.70;;
68947;SDS011;55996;49.546;7.400;2022-09-09T17:00:01;2.40;;;1.40;;
68947;SDS011;55996;49.546;7.400;2022-09-09T17:02:29;1.63;;;1.10;;
68947;SDS011;55996;49.546;7.400;2022-09-09T17:04:55;2.67;;;1.00;;
68947;SDS011;55996;49.546;7.400;2022-09-09T17:07:20;1.77;;;0.90;;
68947;SDS011;55996;49.546;7.400;2022-09-09T17:09:47;4.00;;;1.10;;
68947;SDS011;55996;49.546;7.400;2022-09-09T17:12:14;3.47;;;1.10;;
68947;SDS011;55996;49.546;7.400;2022-09-09T17:14:41;3.60;;;1.17;;
68947;SDS011;55996;49.546;7.400;2022-09-09T17:17:07;1.90;;;0.90;;
68947;SDS011;55996;49.546;7.400;2022-09-09T17:19:32;3.87;;;1.00;;
68947;SDS011;55996;49.546;7.400;2022-09-09T17:21:58;2.23;;;1.20;;
68947;SDS011;55996;49.546;7.400;2022-09-09T17:24:25;2.07;;;1.30;;
68947;SDS011;55996;49.546;7.400;2022-09-09T17:26:54;2.33;;;1.10;;
68947;SDS011;55996;49.546;7.400;2022-09-09T17:29:20;2.77;;;1.00;;
68947;SDS011;55996;49.546;7.400;2022-09-09T17:31:46;2.57;;;1.30;;
68947;SDS011;55996;49.546;7.400;2022-09-09T17:34:12;2.00;;;0.80;;
68947;SDS011;55996;49.546;7.400;2022-09-09T17:36:37;3.73;;;1.00;;
68947;SDS011;55996;49.546;7.400;2022-09-09T17:39:04;1.63;;;1.00;;
68947;SDS011;55996;49.546;7.400;2022-09-09T17:41:31;1.57;;;1.00;;
68947;SDS011;55996;49.546;7.400;2022-09-09T17:43:59;1.93;;;1.20;;
68947;SDS011;55996;49.546;7.400;2022-09-09T17:46:26;2.37;;;1.20;;